Black Star — 9HA2911 — position and weather

sailwx.info

Track history (hours):
 
Tides and Currents Weather Stations Pressure Air Temp Water Temp Dewpoint Dewpoint Depression Visibility Wind Speed Wind Dir Waves Ship Positions

Black Star

Last reported at 2017-Dec-11 09:49 UTC. Time now 2017-Dec-11 17:28 UTC.
Position N 34°52' E 025°05'.

Length 129 m; draft 7.7 m.

Type: Ship. MMSI: 256714000.

Date/timePositionNaut miles runAvg speedWind from/ knotsBaromVisibWave heightAir tempDewpointWater temp
2017-Dec-11 09:49N 34°52' E 025°05'  
2017-Dec-03 09:07N 36°25' E 014°50'212.5
2017-Dec-03 09:00N 36°26' E 014°48'612.5
2017-Dec-03 08:29N 36°27' E 014°41'713.2
2017-Dec-03 08:00N 36°29' E 014°33'713.1
2017-Dec-03 07:30N 36°31' E 014°25'713.4
2017-Dec-03 07:00N 36°33' E 014°17'713.1
2017-Dec-03 06:30N 36°36' E 014°10'712.9
2017-Dec-03 06:00N 36°38' E 014°02'612.8
2017-Dec-03 05:30N 36°40' E 013°55'612.6
2017-Dec-03 05:00N 36°42' E 013°47'612.6
2017-Dec-03 04:30N 36°44' E 013°40'  
Track history (hours):
 
Tides and Currents Weather Stations Pressure Air Temp Water Temp Dewpoint Dewpoint Depression Visibility Wind Speed Wind Dir Waves Ship Positions

Black Star

Last reported at 2017-Dec-11 09:49 UTC. Time now 2017-Dec-11 17:28 UTC.
Position N 34°52' E 025°05'.

Length 129 m; draft 7.7 m.

Type: Ship. MMSI: 256714000.

Date/timePositionNaut miles runAvg speedWind from/ knotsBaromVisibWave heightAir tempDewpointWater temp
2017-Dec-11 09:49N 34°52' E 025°05'  
2017-Dec-03 09:07N 36°25' E 014°50'212.5
2017-Dec-03 09:00N 36°26' E 014°48'612.5
2017-Dec-03 08:29N 36°27' E 014°41'713.2
2017-Dec-03 08:00N 36°29' E 014°33'713.1
2017-Dec-03 07:30N 36°31' E 014°25'713.4
2017-Dec-03 07:00N 36°33' E 014°17'713.1
2017-Dec-03 06:30N 36°36' E 014°10'712.9
2017-Dec-03 06:00N 36°38' E 014°02'612.8
2017-Dec-03 05:30N 36°40' E 013°55'612.6
2017-Dec-03 05:00N 36°42' E 013°47'612.6
2017-Dec-03 04:30N 36°44' E 013°40'  

Dump ship's entire track history